Time;durP1;ratioP1;P1;durP2;ratioP2;P2;SDS_P1;SDS_P2;PMS_P1;PMS_P2;Temp;Humidity;BMP_temperature;BMP_pressure;BME280_temperature;BME280_humidity;BME280_pressure;Samples;Min_cycle;Max_cycle;Signal;HPM_P1;HPM_P2
2022/12/28 00:00:47;;;;;;;10.73;5.93;;;6.00;99.90;;;;;;6240098;23;20091;-72
2022/12/28 00:03:13;;;;;;;11.27;6.50;;;6.00;99.90;;;;;;6240256;23;20016;-71
2022/12/28 00:05:39;;;;;;;11.95;4.43;;;6.00;99.90;;;;;;6242116;23;20004;-72
2022/12/28 00:08:04;;;;;;;11.80;6.68;;;6.00;99.90;;;;;;6240145;23;20016;-71
2022/12/28 00:10:30;;;;;;;12.98;4.45;;;6.00;99.90;;;;;;6241826;23;20014;-72
2022/12/28 00:12:56;;;;;;;13.93;6.28;;;6.00;99.90;;;;;;6241506;23;20004;-71
2022/12/28 00:15:21;;;;;;;10.75;4.28;;;6.00;99.90;;;;;;6240205;23;20012;-71
2022/12/28 00:17:47;;;;;;;11.90;6.28;;;6.00;99.90;;;;;;6242972;23;20028;-72
2022/12/28 00:20:12;;;;;;;12.68;6.30;;;6.00;99.90;;;;;;6241386;23;20012;-71
2022/12/28 00:22:38;;;;;;;9.00;4.20;;;6.00;99.90;;;;;;6242454;23;20023;-71
2022/12/28 00:25:04;;;;;;;10.48;5.65;;;6.00;99.90;;;;;;6241535;23;20606;-72
2022/12/28 00:27:30;;;;;;;11.93;5.40;;;6.00;99.90;;;;;;6242345;23;20073;-72
2022/12/28 00:29:55;;;;;;;11.27;5.15;;;6.00;99.90;;;;;;6241184;23;20063;-72
2022/12/28 00:32:21;;;;;;;10.50;6.35;;;6.00;99.90;;;;;;6241460;23;20008;-72
2022/12/28 00:34:46;;;;;;;10.93;6.57;;;6.00;99.90;;;;;;6243076;23;20012;-72
2022/12/28 00:37:12;;;;;;;10.93;4.38;;;6.00;99.90;;;;;;6242829;23;20048;-72
2022/12/28 00:39:38;;;;;;;9.88;4.63;;;6.00;99.90;;;;;;6243606;23;20020;-71
2022/12/28 00:42:03;;;;;;;12.88;6.68;;;6.00;99.90;;;;;;6243100;22;20099;-71
2022/12/28 00:44:29;;;;;;;11.70;4.70;;;6.00;99.90;;;;;;6242472;23;20016;-71
2022/12/28 00:46:55;;;;;;;11.40;5.85;;;6.00;99.90;;;;;;6243739;23;20008;-72
2022/12/28 00:49:20;;;;;;;12.55;6.78;;;6.00;99.90;;;;;;6242044;23;20075;-71
2022/12/28 00:51:46;;;;;;;9.48;4.10;;;6.00;99.90;;;;;;6242542;23;20008;-72
2022/12/28 00:54:11;;;;;;;11.15;6.03;;;6.00;99.90;;;;;;6243185;23;20012;-72
2022/12/28 00:56:41;;;;;;;8.57;4.63;;;6.00;99.90;;;;;;6244050;23;20088;-72
2022/12/28 00:59:07;;;;;;;12.05;6.50;;;6.00;99.90;;;;;;6243284;22;20380;-72
2022/12/28 01:01:33;;;;;;;11.68;6.90;;;6.00;99.90;;;;;;6242175;23;20020;-72
2022/12/28 01:03:59;;;;;;;10.05;6.45;;;6.00;99.90;;;;;;6243175;23;20437;-71
2022/12/28 01:06:26;;;;;;;11.50;5.15;;;6.00;99.90;;;;;;6240479;23;20023;-72
2022/12/28 01:08:52;;;;;;;11.98;6.55;;;6.00;99.90;;;;;;6241687;23;20051;-71
2022/12/28 01:11:23;;;;;;;11.60;6.32;;;6.00;99.90;;;;;;6243390;23;20015;-72
2022/12/28 01:13:50;;;;;;;9.68;4.85;;;6.00;99.90;;;;;;6241248;23;20008;-72
2022/12/28 01:16:35;;;;;;;10.25;4.70;;;6.00;99.90;;;;;;6242273;22;20008;-72
2022/12/28 01:19:03;;;;;;;11.90;6.50;;;6.00;99.90;;;;;;6241748;23;20061;-72
2022/12/28 01:21:31;;;;;;;10.30;4.60;;;6.00;99.90;;;;;;6239612;23;20012;-72
2022/12/28 01:23:59;;;;;;;13.77;7.20;;;6.00;99.90;;;;;;6240326;23;20012;-72
2022/12/28 01:26:25;;;;;;;10.95;6.90;;;6.00;99.90;;;;;;6243405;22;20024;-72
2022/12/28 01:28:51;;;;;;;9.65;6.63;;;6.00;99.90;;;;;;6240695;23;20031;-72
2022/12/28 01:31:18;;;;;;;10.23;5.40;;;6.10;99.90;;;;;;6242465;23;20430;-71
2022/12/28 01:33:44;;;;;;;11.05;6.63;;;6.10;99.90;;;;;;6215754;23;20008;-71
2022/12/28 01:36:24;;;;;;;11.80;5.38;;;6.10;99.90;;;;;;6240398;23;20396;-72
2022/12/28 01:38:55;;;;;;;12.23;7.45;;;6.10;99.90;;;;;;6242949;22;20008;-72
2022/12/28 01:41:21;;;;;;;;;;;6.10;99.90;;;;;;6243636;22;20023;-72
2022/12/28 01:44:09;;;;;;;12.48;7.65;;;6.10;99.90;;;;;;6243356;22;19911;-72
2022/12/28 01:46:48;;;;;;;10.30;4.82;;;6.10;99.90;;;;;;6225276;23;20337;-72
2022/12/28 01:49:22;;;;;;;14.00;7.10;;;6.10;99.90;;;;;;6240635;23;20008;-71
2022/12/28 01:52:25;;;;;;;12.00;4.85;;;6.10;99.90;;;;;;6243126;22;20016;-72
2022/12/28 01:54:53;;;;;;;10.90;4.95;;;6.10;99.90;;;;;;6243044;23;20034;-71
2022/12/28 01:57:23;;;;;;;10.95;7.00;;;6.10;99.90;;;;;;6243466;22;20098;-71
2022/12/28 01:59:56;;;;;;;10.50;6.93;;;6.10;99.90;;;;;;6239938;23;20016;-71
2022/12/28 02:02:22;;;;;;;9.95;5.05;;;6.20;99.90;;;;;;6241084;23;20065;-71
2022/12/28 02:04:48;;;;;;;12.45;6.70;;;6.20;99.90;;;;;;6242511;22;20016;-70
2022/12/28 02:07:23;;;;;;;10.50;4.93;;;6.20;99.90;;;;;;6242959;22;20307;-72
2022/12/28 02:09:50;;;;;;;12.38;7.05;;;6.20;99.90;;;;;;6242620;22;20004;-71
2022/12/28 02:12:16;;;;;;;11.70;7.25;;;6.20;99.90;;;;;;6215859;23;20402;-71
2022/12/28 02:14:43;;;;;;;12.93;7.45;;;6.20;99.90;;;;;;6216177;23;20023;-72
2022/12/28 02:17:10;;;;;;;10.85;5.40;;;6.30;99.90;;;;;;6214349;23;20020;-72
2022/12/28 02:19:44;;;;;;;12.23;8.10;;;6.30;99.90;;;;;;6241084;23;20019;-71
2022/12/28 02:22:53;;;;;;;12.65;7.28;;;6.20;99.90;;;;;;6243488;22;20355;-71
2022/12/28 02:25:27;;;;;;;11.25;7.85;;;6.30;99.90;;;;;;6242080;22;20408;-72
2022/12/28 02:28:30;;;;;;;11.40;5.72;;;6.30;99.90;;;;;;6240313;23;20020;-72
2022/12/28 02:31:03;;;;;;;12.02;5.63;;;6.30;99.90;;;;;;6239823;23;20016;-72
2022/12/28 02:33:43;;;;;;;9.95;5.70;;;6.30;99.90;;;;;;6241459;22;20019;-72
2022/12/28 02:36:18;;;;;;;12.05;7.57;;;6.30;99.90;;;;;;6241740;22;20012;-71
2022/12/28 02:38:52;;;;;;;11.88;7.75;;;6.30;99.90;;;;;;6242431;22;20012;-71
2022/12/28 02:41:21;;;;;;;11.55;7.90;;;6.30;99.90;;;;;;6240720;23;20043;-71
2022/12/28 02:43:47;;;;;;;10.95;7.63;;;6.30;99.90;;;;;;6242815;22;20016;-71
2022/12/28 02:52:31;;;;;;;10.88;5.28;;;6.30;99.90;;;;;;6242784;23;20020;-71
2022/12/28 02:58:14;;;;;;;11.70;7.90;;;6.30;99.90;;;;;;6242921;23;20022;-71
2022/12/28 03:01:04;;;;;;;12.77;6.15;;;6.40;99.90;;;;;;6240685;23;20012;-72
2022/12/28 03:04:02;;;;;;;11.73;7.45;;;6.30;99.90;;;;;;6240011;23;20024;-72
2022/12/28 03:10:19;;;;;;;11.02;5.97;;;6.40;99.90;;;;;;6241206;23;20016;-71
2022/12/28 03:12:57;;;;;;;11.43;6.65;;;6.40;99.90;;;;;;6224022;23;20019;-71
2022/12/28 03:15:33;;;;;;;12.23;8.48;;;6.40;99.90;;;;;;6242144;22;20438;-71
2022/12/28 03:32:17;;;;;;;8.65;5.28;;;6.60;99.90;;;;;;6241803;23;20016;-71
2022/12/28 03:34:42;;;;;;;12.15;8.93;;;6.60;99.90;;;;;;6242207;23;20457;-71
2022/12/28 03:37:24;;;;;;;12.18;6.53;;;6.60;99.90;;;;;;6241803;22;20047;-71
2022/12/28 03:40:09;;;;;;;9.57;5.63;;;6.60;99.90;;;;;;6240925;23;20016;-71
2022/12/28 03:45:34;;;;;;;13.75;9.05;;;6.60;99.90;;;;;;6242148;23;20087;-71
2022/12/28 03:48:01;;;;;;;12.27;8.45;;;6.70;99.90;;;;;;6241953;23;20019;-71
2022/12/28 03:50:29;;;;;;;11.40;8.50;;;6.70;99.90;;;;;;6240974;23;20012;-71
2022/12/28 03:52:56;;;;;;;13.05;9.00;;;6.70;99.90;;;;;;6243039;23;20012;-71
2022/12/28 03:55:23;;;;;;;11.98;8.18;;;6.70;99.90;;;;;;6242220;23;20330;-71
2022/12/28 03:57:49;;;;;;;10.43;7.88;;;6.80;99.90;;;;;;6244390;22;20353;-71
2022/12/28 04:00:15;;;;;;;9.07;4.75;;;6.80;99.90;;;;;;6241876;23;20043;-71
2022/12/28 04:02:40;;;;;;;10.10;5.10;;;6.80;99.90;;;;;;6242126;23;20016;-72
2022/12/28 04:05:06;;;;;;;11.07;7.68;;;6.80;99.90;;;;;;6243263;23;20012;-71
2022/12/28 04:07:32;;;;;;;10.50;7.22;;;6.80;99.90;;;;;;6242618;23;20091;-71
2022/12/28 04:09:57;;;;;;;10.95;7.60;;;6.90;99.90;;;;;;6242339;23;20020;-71
2022/12/28 04:12:23;;;;;;;10.48;8.00;;;6.90;99.90;;;;;;6243456;23;20716;-71
2022/12/28 04:14:48;;;;;;;8.98;6.95;;;6.90;99.90;;;;;;6242191;23;20020;-72
2022/12/28 04:17:14;;;;;;;9.63;7.18;;;6.90;99.90;;;;;;6216073;23;20012;-71
2022/12/28 04:19:40;;;;;;;10.02;6.78;;;6.90;99.90;;;;;;6244515;23;20138;-72
2022/12/28 04:22:05;;;;;;;10.45;7.82;;;7.00;99.90;;;;;;6241806;23;20019;-72
2022/12/28 04:24:31;;;;;;;10.57;7.18;;;7.00;99.90;;;;;;6244850;23;20016;-71
2022/12/28 04:26:56;;;;;;;8.77;6.88;;;7.00;99.90;;;;;;6243395;23;20055;-71
2022/12/28 04:29:22;;;;;;;9.23;6.78;;;7.00;99.90;;;;;;6243074;23;20058;-71
2022/12/28 04:31:47;;;;;;;9.00;6.40;;;7.00;99.90;;;;;;6241685;23;20015;-71
2022/12/28 04:34:13;;;;;;;9.65;7.05;;;7.00;99.90;;;;;;6241772;23;20019;-71
2022/12/28 04:36:39;;;;;;;10.23;6.20;;;7.00;99.90;;;;;;6241893;23;20012;-71
2022/12/28 04:39:05;;;;;;;8.40;6.50;;;7.00;99.90;;;;;;6243210;22;20016;-71
2022/12/28 04:41:30;;;;;;;8.48;6.38;;;7.00;99.90;;;;;;6244279;23;20015;-72
2022/12/28 04:43:57;;;;;;;9.77;6.35;;;7.10;99.90;;;;;;6241331;23;20042;-71
2022/12/28 04:46:23;;;;;;;8.63;6.35;;;7.10;99.90;;;;;;6241085;23;20012;-72
2022/12/28 04:48:49;;;;;;;9.80;6.68;;;7.10;99.90;;;;;;6243785;22;20043;-72
2022/12/28 04:51:21;;;;;;;8.77;6.10;;;7.10;99.90;;;;;;6244116;22;20012;-71
2022/12/28 04:53:47;;;;;;;8.02;6.15;;;7.10;99.90;;;;;;6241684;23;20087;-71
2022/12/28 04:56:13;;;;;;;9.80;6.15;;;7.10;99.90;;;;;;6242324;23;20097;-71
2022/12/28 04:58:39;;;;;;;8.77;6.32;;;7.20;99.90;;;;;;6243305;22;20130;-71
2022/12/28 05:01:16;;;;;;;7.70;4.18;;;7.20;99.90;;;;;;6242651;23;20051;-71
2022/12/28 05:03:43;;;;;;;9.35;4.00;;;7.20;99.90;;;;;;6241107;23;20391;-71
2022/12/28 05:06:28;;;;;;;8.50;5.65;;;7.20;99.90;;;;;;6240583;23;20074;-71
2022/12/28 05:08:54;;;;;;;8.60;5.93;;;7.20;99.90;;;;;;6241406;23;20016;-72
2022/12/28 05:11:23;;;;;;;8.68;6.43;;;7.20;99.90;;;;;;6242031;23;20008;-71
2022/12/28 05:13:49;;;;;;;8.68;6.15;;;7.20;99.90;;;;;;6241475;23;20014;-71
2022/12/28 05:16:17;;;;;;;8.70;6.57;;;7.20;99.90;;;;;;6215781;23;20094;-71
2022/12/28 05:18:43;;;;;;;9.60;6.72;;;7.20;99.90;;;;;;6244029;22;20449;-72
2022/12/28 05:21:20;;;;;;;8.27;6.45;;;7.30;99.90;;;;;;6242469;22;20019;-71
2022/12/28 05:23:47;;;;;;;8.95;6.72;;;7.30;99.90;;;;;;6243094;22;20214;-72
2022/12/28 05:26:16;;;;;;;9.02;6.88;;;7.30;99.90;;;;;;6241235;23;20027;-71
2022/12/28 05:28:41;;;;;;;8.80;6.97;;;7.30;99.90;;;;;;6240798;23;20071;-71
2022/12/28 05:31:11;;;;;;;8.77;6.43;;;7.30;99.90;;;;;;6241916;22;20055;-71
2022/12/28 05:33:37;;;;;;;8.57;4.72;;;7.40;99.90;;;;;;6243670;22;20012;-71
2022/12/28 05:36:10;;;;;;;9.63;7.13;;;7.40;99.90;;;;;;6243027;22;20350;-71
2022/12/28 05:38:36;;;;;;;9.18;7.55;;;7.40;99.90;;;;;;6243052;22;20015;-71
2022/12/28 05:41:11;;;;;;;9.18;7.13;;;7.40;99.90;;;;;;6243194;23;20083;-71
2022/12/28 05:43:37;;;;;;;9.27;7.45;;;7.40;99.90;;;;;;6243583;22;20315;-71
2022/12/28 05:46:05;;;;;;;10.43;8.13;;;7.40;99.90;;;;;;6243098;22;20015;-71
2022/12/28 05:48:36;;;;;;;10.52;8.00;;;7.50;99.90;;;;;;6243383;22;20086;-71
2022/12/28 05:51:06;;;;;;;9.87;8.03;;;7.50;99.90;;;;;;6241341;23;20016;-71
2022/12/28 05:53:32;;;;;;;8.40;4.50;;;7.50;99.90;;;;;;6243544;22;20008;-71
2022/12/28 05:56:11;;;;;;;10.38;8.63;;;7.50;99.90;;;;;;6240834;23;20012;-71
2022/12/28 05:58:37;;;;;;;10.27;8.43;;;7.50;99.90;;;;;;6243605;22;20012;-71
2022/12/28 06:01:05;;;;;;;10.95;9.07;;;7.50;99.90;;;;;;6242740;23;20376;-71
2022/12/28 06:03:31;;;;;;;9.70;8.50;;;7.60;99.90;;;;;;6243555;22;20329;-71
2022/12/28 06:06:00;;;;;;;11.35;10.13;;;7.60;99.90;;;;;;6243023;23;20065;-71
2022/12/28 06:08:28;;;;;;;10.35;9.15;;;7.60;99.90;;;;;;6242504;23;20027;-71
2022/12/28 06:10:53;;;;;;;11.15;10.02;;;7.60;99.90;;;;;;6214885;23;20008;-71
2022/12/28 06:13:19;;;;;;;12.10;10.02;;;7.70;99.90;;;;;;6241388;23;20090;-71
2022/12/28 06:15:44;;;;;;;10.98;9.77;;;7.70;99.90;;;;;;6240624;23;20015;-71
2022/12/28 06:18:10;;;;;;;10.57;9.20;;;7.70;99.90;;;;;;6242930;23;20008;-71
2022/12/28 06:20:35;;;;;;;11.00;9.70;;;7.70;99.90;;;;;;6242809;23;20015;-71
2022/12/28 06:23:01;;;;;;;10.50;9.40;;;7.70;99.90;;;;;;6241734;23;20350;-71
2022/12/28 06:25:26;;;;;;;11.05;9.82;;;7.70;99.90;;;;;;6240044;23;20005;-71
2022/12/28 06:27:52;;;;;;;11.43;10.23;;;7.70;99.90;;;;;;6242552;23;20070;-71
2022/12/28 06:30:18;;;;;;;11.38;10.25;;;7.70;99.90;;;;;;6240241;23;20035;-71
2022/12/28 06:32:43;;;;;;;12.30;10.55;;;7.80;99.90;;;;;;6241083;23;20048;-71
2022/12/28 06:35:09;;;;;;;11.43;10.10;;;7.80;99.90;;;;;;6240166;23;20012;-71
2022/12/28 06:37:34;;;;;;;12.20;10.90;;;7.80;99.90;;;;;;6240929;23;20502;-71
2022/12/28 06:40:00;;;;;;;11.10;9.70;;;7.80;99.90;;;;;;6240985;23;20039;-71
2022/12/28 06:42:26;;;;;;;11.95;10.63;;;7.90;99.90;;;;;;6242649;23;20008;-72
2022/12/28 06:44:51;;;;;;;11.60;10.40;;;7.90;99.90;;;;;;6242645;23;20015;-71
2022/12/28 06:47:17;;;;;;;12.57;10.68;;;7.90;99.90;;;;;;6242527;23;20450;-71
2022/12/28 06:49:42;;;;;;;11.88;10.27;;;7.90;99.90;;;;;;6240824;23;20381;-71
2022/12/28 06:52:08;;;;;;;11.32;9.85;;;7.90;99.90;;;;;;6239090;23;20019;-71
2022/12/28 06:54:33;;;;;;;11.18;9.98;;;8.00;99.90;;;;;;6240172;23;20012;-72
2022/12/28 06:56:59;;;;;;;12.23;10.55;;;8.00;99.90;;;;;;6241843;23;20027;-72
2022/12/28 06:59:25;;;;;;;12.60;11.30;;;8.00;99.90;;;;;;6240674;23;20370;-71
2022/12/28 07:01:50;;;;;;;11.90;10.70;;;8.00;99.90;;;;;;6241208;23;20437;-71
2022/12/28 07:04:16;;;;;;;12.40;11.00;;;8.00;99.90;;;;;;6235965;23;20054;-71
2022/12/28 07:06:43;;;;;;;11.43;10.23;;;8.10;99.90;;;;;;6240848;22;20029;-71
2022/12/28 07:09:15;;;;;;;12.55;11.25;;;8.10;99.90;;;;;;6236518;23;20061;-71
2022/12/28 07:11:42;;;;;;;13.07;11.88;;;8.10;99.90;;;;;;6241342;22;20012;-71
2022/12/28 07:14:08;;;;;;;12.15;10.90;;;8.10;99.90;;;;;;6240269;22;20034;-71
2022/12/28 07:16:34;;;;;;;12.80;11.50;;;8.10;99.90;;;;;;6241602;23;20016;-70
2022/12/28 07:19:00;;;;;;;13.23;11.93;;;8.10;99.90;;;;;;6241363;22;20066;-70
2022/12/28 07:21:32;;;;;;;13.30;12.00;;;8.20;99.90;;;;;;6241538;22;20078;-71
2022/12/28 07:23:58;;;;;;;12.95;11.55;;;8.20;99.90;;;;;;6239800;23;20095;-71
2022/12/28 07:26:27;;;;;;;13.30;11.95;;;8.20;99.90;;;;;;6240642;22;20077;-71
2022/12/28 07:28:54;;;;;;;14.38;12.93;;;8.20;99.90;;;;;;6242486;22;20479;-70
2022/12/28 07:31:23;;;;;;;14.35;12.90;;;8.20;99.90;;;;;;6241174;23;20027;-71
2022/12/28 07:33:50;;;;;;;14.98;13.48;;;8.30;99.90;;;;;;6242628;22;20066;-71
2022/12/28 07:36:18;;;;;;;14.50;12.75;;;8.30;99.90;;;;;;6242132;22;20155;-71
2022/12/28 07:38:44;;;;;;;15.10;13.57;;;8.30;99.90;;;;;;6240632;23;20471;-70
2022/12/28 07:41:13;;;;;;;15.20;13.43;;;8.30;99.90;;;;;;6244428;22;20072;-70
2022/12/28 07:43:39;;;;;;;14.63;13.20;;;8.30;99.90;;;;;;6244079;22;20008;-70
2022/12/28 07:46:19;;;;;;;15.07;13.57;;;8.40;99.90;;;;;;6240535;22;20468;-70
2022/12/28 07:48:46;;;;;;;14.43;13.00;;;8.40;99.90;;;;;;6241107;23;20034;-71
2022/12/28 07:51:13;;;;;;;14.90;13.40;;;8.40;99.90;;;;;;6241119;23;20066;-70
2022/12/28 07:53:40;;;;;;;15.43;13.82;;;8.40;99.90;;;;;;6242005;22;20016;-71
2022/12/28 07:56:06;;;;;;;14.57;13.18;;;8.40;99.90;;;;;;6239088;23;20214;-71
2022/12/28 07:58:32;;;;;;;15.38;13.88;;;8.50;99.90;;;;;;6216822;23;20070;-71
2022/12/28 08:01:12;;;;;;;15.23;13.73;;;8.50;99.90;;;;;;6243290;22;20095;-72
2022/12/28 08:03:39;;;;;;;15.00;13.50;;;8.50;99.90;;;;;;6241482;23;20066;-71
2022/12/28 08:06:24;;;;;;;17.30;15.50;;;8.50;99.90;;;;;;6242456;22;20020;-71
2022/12/28 08:08:53;;;;;;;15.20;13.70;;;8.50;99.90;;;;;;6242378;22;20008;-71
2022/12/28 08:11:21;;;;;;;15.77;14.27;;;8.50;99.90;;;;;;6240196;23;20012;-70
2022/12/28 08:13:49;;;;;;;16.13;14.48;;;8.50;99.90;;;;;;6242149;22;20009;-74
2022/12/28 08:16:17;;;;;;;15.38;13.82;;;8.50;99.90;;;;;;6239325;23;20111;-69
2022/12/28 08:18:43;;;;;;;15.32;13.80;;;8.60;99.90;;;;;;6241277;22;20341;-70
2022/12/28 08:21:22;;;;;;;15.38;13.52;;;8.60;99.90;;;;;;6240655;23;20008;-70
2022/12/28 08:23:49;;;;;;;14.23;12.85;;;8.60;99.90;;;;;;6240955;23;20016;-70
2022/12/28 08:26:20;;;;;;;14.85;13.35;;;8.60;99.90;;;;;;6240386;22;20087;-70
2022/12/28 08:28:47;;;;;;;14.23;12.82;;;8.60;99.90;;;;;;6242738;22;20027;-70
2022/12/28 08:31:17;;;;;;;15.45;13.90;;;8.60;99.90;;;;;;6242602;23;20012;-70
2022/12/28 08:33:42;;;;;;;13.93;12.40;;;8.70;99.90;;;;;;6241042;23;20083;-70
2022/12/28 08:36:09;;;;;;;13.68;12.27;;;8.70;99.90;;;;;;6242462;23;20083;-70
2022/12/28 08:38:36;;;;;;;13.65;12.25;;;8.70;99.90;;;;;;6243369;22;20356;-71
2022/12/28 08:41:03;;;;;;;13.52;12.13;;;8.70;99.90;;;;;;6243229;22;20020;-71
2022/12/28 08:43:30;;;;;;;13.85;12.45;;;8.80;99.90;;;;;;6242859;22;20012;-70
2022/12/28 08:46:04;;;;;;;13.25;11.85;;;8.70;99.90;;;;;;6242817;22;20148;-71
2022/12/28 08:48:30;;;;;;;12.98;11.50;;;8.80;99.90;;;;;;6243807;22;20027;-70
2022/12/28 08:51:01;;;;;;;13.68;12.35;;;8.80;99.90;;;;;;6242626;22;20016;-70
2022/12/28 08:53:27;;;;;;;;;;;8.80;99.90;;;;;;6242887;22;20078;-70
2022/12/28 08:55:53;;;;;;;13.80;12.40;;;8.80;99.90;;;;;;6241987;23;19911;-70
2022/12/28 08:58:18;;;;;;;15.23;13.50;;;8.80;99.90;;;;;;6242880;23;20008;-70
2022/12/28 09:00:44;;;;;;;14.27;12.88;;;8.80;99.90;;;;;;6243022;22;20130;-70
2022/12/28 09:03:09;;;;;;;13.00;11.73;;;8.80;99.90;;;;;;6238283;23;20016;-71
2022/12/28 09:05:39;;;;;;;13.48;12.18;;;8.80;99.90;;;;;;6242676;23;20011;-70
2022/12/28 09:08:05;;;;;;;13.75;12.35;;;8.80;99.90;;;;;;6240322;23;20016;-70
2022/12/28 09:10:31;;;;;;;13.07;11.77;;;8.80;99.90;;;;;;6242584;23;20310;-70
2022/12/28 09:12:56;;;;;;;13.13;11.77;;;8.80;99.90;;;;;;6240794;23;20386;-71
2022/12/28 09:15:23;;;;;;;13.48;12.07;;;8.90;99.90;;;;;;6240035;23;20047;-71
2022/12/28 09:17:48;;;;;;;13.57;12.07;;;8.90;99.90;;;;;;6240620;23;20016;-71
2022/12/28 09:20:14;;;;;;;12.77;11.40;;;8.90;99.90;;;;;;6241832;23;20019;-70
2022/12/28 09:22:39;;;;;;;13.32;11.45;;;8.90;99.90;;;;;;6243290;23;20012;-72
2022/12/28 09:25:05;;;;;;;13.23;11.45;;;8.90;99.90;;;;;;6241573;23;20341;-72
2022/12/28 09:27:31;;;;;;;12.30;11.05;;;8.90;99.90;;;;;;6241438;23;20040;-72
2022/12/28 09:29:57;;;;;;;12.80;11.50;;;8.90;99.90;;;;;;6242624;23;20016;-72
2022/12/28 09:32:22;;;;;;;11.68;10.48;;;8.90;99.90;;;;;;6241514;23;20012;-72
2022/12/28 09:34:48;;;;;;;12.65;11.10;;;9.00;99.90;;;;;;6239595;23;20042;-72
2022/12/28 09:37:14;;;;;;;11.98;10.77;;;9.00;99.90;;;;;;6239631;23;20050;-72
2022/12/28 09:39:39;;;;;;;11.40;10.10;;;9.00;99.90;;;;;;6240790;23;20023;-72
2022/12/28 09:42:16;;;;;;;12.32;11.02;;;9.00;99.90;;;;;;6242413;23;20035;-72
2022/12/28 09:44:52;;;;;;;12.30;11.00;;;9.00;99.90;;;;;;6241362;23;20016;-72
2022/12/28 09:47:29;;;;;;;11.52;10.32;;;9.00;99.90;;;;;;6215365;23;20020;-72
2022/12/28 09:50:27;;;;;;;12.45;10.93;;;9.10;99.90;;;;;;6240863;23;20040;-72
2022/12/28 09:53:14;;;;;;;12.00;10.80;;;9.10;99.90;;;;;;6214595;23;20131;-69
2022/12/28 09:55:52;;;;;;;12.15;10.82;;;9.00;99.90;;;;;;6240903;23;20012;-69
2022/12/28 09:58:18;;;;;;;12.40;11.10;;;9.10;99.90;;;;;;6242248;22;20016;-69
2022/12/28 10:00:51;;;;;;;11.82;10.63;;;9.10;99.90;;;;;;6242835;22;20004;-70
2022/12/28 10:03:22;;;;;;;12.48;11.18;;;9.10;99.90;;;;;;6240096;23;20016;-69
2022/12/28 10:05:50;;;;;;;12.82;11.52;;;9.10;99.90;;;;;;6242874;22;20042;-69
2022/12/28 10:08:19;;;;;;;12.68;11.38;;;9.10;99.90;;;;;;6239380;23;20084;-70
2022/12/28 10:10:46;;;;;;;12.68;11.38;;;9.10;99.90;;;;;;6241857;22;20019;-69
2022/12/28 10:13:30;;;;;;;13.23;11.25;;;9.10;99.90;;;;;;6241848;22;20016;-69
2022/12/28 10:15:56;;;;;;;12.88;11.50;;;9.10;99.90;;;;;;6240386;23;20040;-69
2022/12/28 10:18:25;;;;;;;13.68;12.27;;;9.20;99.90;;;;;;6214712;23;20004;-72
2022/12/28 10:20:51;;;;;;;12.80;11.50;;;9.20;99.90;;;;;;6239821;23;20464;-72
2022/12/28 10:23:23;;;;;;;12.57;11.27;;;9.20;99.90;;;;;;6241316;22;20345;-72
2022/12/28 10:25:51;;;;;;;12.90;11.60;;;9.20;99.90;;;;;;6239368;22;20322;-70
2022/12/28 10:28:19;;;;;;;11.98;10.77;;;9.20;99.90;;;;;;6241552;22;20012;-70
2022/12/28 10:31:06;;;;;;;12.82;10.90;;;9.20;99.90;;;;;;6241531;22;20405;-70
2022/12/28 10:33:36;;;;;;;12.52;11.23;;;9.20;99.90;;;;;;6240564;23;20079;-70
2022/12/28 10:36:02;;;;;;;12.52;11.27;;;9.20;99.90;;;;;;6240532;23;20027;-70
2022/12/28 10:38:33;;;;;;;13.05;11.18;;;9.20;99.90;;;;;;6240145;23;20020;-71
2022/12/28 10:41:08;;;;;;;12.30;11.00;;;9.20;99.90;;;;;;6240085;23;20427;-70
2022/12/28 10:43:40;;;;;;;12.93;10.57;;;9.30;99.90;;;;;;6240623;23;20055;-71
2022/12/28 10:46:13;;;;;;;11.52;10.02;;;9.30;99.90;;;;;;6241549;22;20005;-71
2022/12/28 10:48:42;;;;;;;11.45;9.77;;;9.30;99.90;;;;;;6240540;23;20012;-71
2022/12/28 10:51:12;;;;;;;10.52;9.15;;;9.30;99.90;;;;;;6241071;22;20023;-71
2022/12/28 10:53:38;;;;;;;10.52;8.82;;;9.30;99.90;;;;;;6242393;23;20106;-70
2022/12/28 10:56:15;;;;;;;9.73;8.45;;;9.30;99.90;;;;;;6237741;23;20055;-71
2022/12/28 10:58:43;;;;;;;10.38;7.97;;;9.40;99.90;;;;;;6238848;23;20016;-71
2022/12/28 11:01:12;;;;;;;8.85;7.38;;;9.40;99.90;;;;;;6238161;23;20047;-71
2022/12/28 11:03:43;;;;;;;9.75;7.75;;;9.40;99.90;;;;;;6242388;23;20016;-71
2022/12/28 11:06:13;;;;;;;9.18;7.70;;;9.40;99.90;;;;;;6239952;23;20091;-71
2022/12/28 11:08:41;;;;;;;8.93;7.50;;;9.40;99.90;;;;;;6215497;23;20012;-72
2022/12/28 11:11:19;;;;;;;9.02;6.95;;;9.40;99.90;;;;;;6241167;22;20027;-71
2022/12/28 11:13:49;;;;;;;8.75;6.95;;;9.40;99.90;;;;;;6242051;22;20020;-71
2022/12/28 11:16:14;;;;;;;9.05;6.80;;;9.50;99.90;;;;;;6240626;22;20012;-73
2022/12/28 11:18:40;;;;;;;8.73;6.93;;;9.40;99.90;;;;;;6240771;23;20020;-70
2022/12/28 11:21:10;;;;;;;8.60;6.60;;;9.40;99.90;;;;;;6240109;23;20480;-69
2022/12/28 11:23:37;;;;;;;8.05;6.35;;;9.50;99.90;;;;;;6242143;22;20012;-70
2022/12/28 11:26:03;;;;;;;8.98;6.50;;;9.50;99.90;;;;;;6238728;23;20119;-69
2022/12/28 11:28:29;;;;;;;8.60;6.53;;;9.50;99.90;;;;;;6240136;23;20008;-69
2022/12/28 11:30:55;;;;;;;8.73;6.63;;;9.50;99.90;;;;;;6240172;23;20016;-69
2022/12/28 11:33:41;;;;;;;8.02;6.35;;;9.50;99.90;;;;;;6239667;23;20012;-68
2022/12/28 11:36:14;;;;;;;8.40;6.70;;;9.50;99.90;;;;;;6240082;23;20048;-68
2022/12/28 11:38:45;;;;;;;9.40;6.82;;;9.50;99.90;;;;;;6240037;23;20035;-69
2022/12/28 11:41:23;;;;;;;8.93;6.30;;;9.50;99.90;;;;;;6242104;22;20019;-69
2022/12/28 11:44:33;;;;;;;7.95;6.25;;;9.50;99.90;;;;;;6239756;23;20334;-69
2022/12/28 11:47:16;;;;;;;8.65;6.90;;;9.50;99.90;;;;;;6241280;23;20087;-68
2022/12/28 11:49:47;;;;;;;8.95;6.68;;;9.50;99.90;;;;;;6240831;23;20394;-69
2022/12/28 11:52:15;;;;;;;8.68;6.43;;;9.50;99.90;;;;;;6242360;22;20009;-69
2022/12/28 11:54:51;;;;;;;8.27;6.35;;;9.50;99.90;;;;;;6241967;23;20020;-69
2022/12/28 11:57:39;;;;;;;8.55;6.47;;;9.50;99.90;;;;;;6241732;22;20396;-69
2022/12/28 12:00:19;;;;;;;8.95;6.35;;;9.50;99.90;;;;;;6239998;22;20449;-70
2022/12/28 12:02:51;;;;;;;8.45;6.20;;;9.50;99.90;;;;;;6241975;22;20016;-69
2022/12/28 12:05:38;;;;;;;;;;;9.50;99.90;;;;;;6242437;23;20034;-69
2022/12/28 12:08:15;;;;;;;7.85;5.93;;;9.50;99.90;;;;;;6238850;23;19977;-70
2022/12/28 12:10:48;;;;;;;7.53;5.88;;;9.50;99.90;;;;;;6241860;23;20008;-70
2022/12/28 12:13:26;;;;;;;7.90;5.55;;;9.50;99.90;;;;;;6240889;23;20012;-70
2022/12/28 12:16:05;;;;;;;7.45;5.30;;;9.50;99.90;;;;;;6242554;23;20043;-70
2022/12/28 12:18:44;;;;;;;7.70;5.50;;;9.50;99.90;;;;;;6242045;23;20062;-71
2022/12/28 12:21:24;;;;;;;8.20;5.97;;;9.50;99.90;;;;;;6242552;22;20062;-70
2022/12/28 12:23:56;;;;;;;7.35;5.57;;;9.50;99.90;;;;;;6241515;22;20016;-69
2022/12/28 12:26:34;;;;;;;7.78;5.72;;;9.50;99.90;;;;;;6243026;22;20016;-70
2022/12/28 12:29:11;;;;;;;8.23;6.03;;;9.50;99.90;;;;;;6242098;22;20020;-70
2022/12/28 12:31:41;;;;;;;7.93;5.82;;;9.50;99.90;;;;;;6242402;22;20020;-71
2022/12/28 12:34:39;;;;;;;8.00;6.35;;;9.50;99.90;;;;;;6242762;22;20016;-71
2022/12/28 12:37:30;;;;;;;8.05;5.40;;;9.50;99.90;;;;;;6235930;23;20020;-71
2022/12/28 12:40:02;;;;;;;7.47;5.45;;;9.50;99.90;;;;;;6240361;23;20050;-71
2022/12/28 12:42:57;;;;;;;8.75;5.20;;;9.50;99.90;;;;;;6242168;23;20315;-71
2022/12/28 12:45:38;;;;;;;7.30;5.20;;;9.50;99.90;;;;;;6243723;22;20012;-71
2022/12/28 12:48:31;;;;;;;7.00;4.97;;;9.50;99.90;;;;;;6241128;23;20024;-71
2022/12/28 12:51:20;;;;;;;7.53;5.03;;;9.50;99.90;;;;;;6241069;23;20027;-70
2022/12/28 12:53:55;;;;;;;7.28;5.05;;;9.50;99.90;;;;;;6242018;23;20366;-70
2022/12/28 12:56:39;;;;;;;7.20;4.75;;;9.50;99.90;;;;;;6243203;23;20023;-70
2022/12/28 12:59:19;;;;;;;6.57;4.20;;;9.50;99.90;;;;;;6243773;23;20026;-70
2022/12/28 13:02:10;;;;;;;6.63;4.47;;;9.50;99.90;;;;;;6244038;23;20008;-71
2022/12/28 13:04:39;;;;;;;7.22;4.53;;;9.50;99.90;;;;;;6241693;23;20016;-70
2022/12/28 13:07:16;;;;;;;6.55;4.03;;;9.50;99.90;;;;;;6243421;22;20016;-71
2022/12/28 13:09:42;;;;;;;6.18;4.07;;;9.50;99.90;;;;;;6242086;23;20031;-71
2022/12/28 13:12:15;;;;;;;6.25;3.88;;;9.50;99.90;;;;;;6240541;23;20012;-70
2022/12/28 13:14:57;;;;;;;6.55;3.90;;;9.50;99.90;;;;;;6244204;22;20008;-71
2022/12/28 13:17:24;;;;;;;6.47;3.75;;;9.50;99.90;;;;;;6242188;23;20044;-70
2022/12/28 13:19:49;;;;;;;6.88;4.05;;;9.50;99.90;;;;;;6243710;22;20008;-70
2022/12/28 13:22:26;;;;;;;7.43;3.95;;;9.50;99.90;;;;;;6243757;23;20341;-71
2022/12/28 13:24:52;;;;;;;6.47;3.92;;;9.50;99.90;;;;;;6243118;22;20043;-70
2022/12/28 13:27:19;;;;;;;6.10;3.85;;;9.50;99.90;;;;;;6241053;23;20019;-70
2022/12/28 13:29:53;;;;;;;6.93;3.60;;;9.50;99.90;;;;;;6243388;22;20016;-70
2022/12/28 13:32:30;;;;;;;5.32;3.40;;;9.50;99.90;;;;;;6243690;22;20055;-70
2022/12/28 13:34:56;;;;;;;5.85;3.40;;;9.50;99.90;;;;;;6241881;23;20020;-70